createdAt,value
2018-05-17T00:02:24.698Z,47.27
2018-05-17T00:04:52.212Z,52.10
2018-05-17T00:07:19.754Z,48.10
2018-05-17T00:09:47.328Z,49.97
2018-05-17T00:12:14.830Z,52.87
2018-05-17T00:14:42.606Z,53.97
2018-05-17T00:17:10.098Z,58.97
2018-05-17T00:19:37.631Z,52.63
2018-05-17T00:22:05.961Z,58.33
2018-05-17T00:24:34.256Z,57.53
2018-05-17T00:27:01.764Z,48.20
2018-05-17T00:29:29.303Z,47.07
2018-05-17T00:31:56.798Z,60.83
2018-05-17T00:34:24.338Z,57.60
2018-05-17T00:36:51.844Z,54.20
2018-05-17T00:39:19.382Z,59.13
2018-05-17T00:41:47.659Z,51.27
2018-05-17T00:44:15.963Z,53.47
2018-05-17T00:46:43.465Z,58.80
2018-05-17T00:49:11.013Z,57.40
2018-05-17T00:51:38.520Z,70.33
2018-05-17T00:54:06.819Z,53.30
2018-05-17T00:56:34.388Z,54.77
2018-05-17T00:59:01.923Z,56.50
2018-05-17T01:01:30.193Z,58.57
2018-05-17T01:03:58.486Z,56.13
2018-05-17T01:06:25.985Z,60.53
2018-05-17T01:08:53.527Z,53.50
2018-05-17T01:11:21.164Z,63.37
2018-05-17T01:13:48.657Z,63.77
2018-05-17T01:16:16.297Z,63.80
2018-05-17T01:18:43.837Z,57.60
2018-05-17T01:21:12.151Z,111.57
2018-05-17T01:23:39.644Z,60.57
2018-05-17T01:26:07.180Z,64.77
2018-05-17T01:28:34.677Z,67.03
2018-05-17T01:31:03.000Z,79.50
2018-05-17T01:33:30.500Z,64.20
2018-05-17T01:35:58.038Z,75.03
2018-05-17T01:38:25.548Z,65.40
2018-05-17T01:40:53.089Z,68.97
2018-05-17T01:43:20.602Z,69.00
2018-05-17T01:45:48.141Z,70.03
2018-05-17T01:48:15.649Z,75.03
2018-05-17T01:50:43.190Z,74.17
2018-05-17T01:53:10.685Z,77.07
2018-05-17T01:55:38.960Z,89.40
2018-05-17T01:58:07.284Z,82.60
2018-05-17T02:00:34.783Z,80.07
2018-05-17T02:03:02.327Z,82.60
2018-05-17T02:05:29.831Z,67.57
2018-05-17T02:07:57.387Z,74.00
2018-05-17T02:10:26.234Z,73.00
2018-05-17T02:12:53.769Z,74.67
2018-05-17T02:15:21.310Z,75.83
2018-05-17T02:17:48.817Z,75.57
2018-05-17T02:20:18.580Z,85.60
2018-05-17T02:22:46.078Z,78.70
2018-05-17T02:25:13.577Z,73.33
2018-05-17T02:27:41.869Z,65.40
2018-05-17T02:30:09.386Z,73.53
2018-05-17T02:32:36.930Z,80.33
2018-05-17T02:35:04.450Z,83.23
2018-05-17T02:37:31.992Z,87.93
2018-05-17T02:39:59.535Z,78.47
2018-05-17T02:42:27.807Z,83.57
2018-05-17T02:44:56.119Z,80.03
2018-05-17T02:47:23.626Z,85.03
2018-05-17T02:49:51.155Z,85.60
2018-05-17T02:52:18.662Z,87.73
2018-05-17T02:54:46.987Z,81.53
2018-05-17T02:57:14.493Z,92.23
2018-05-17T02:59:42.038Z,87.00
2018-05-17T03:02:09.564Z,84.47
2018-05-17T03:04:37.107Z,83.30
2018-05-17T03:07:04.608Z,98.10
2018-05-17T03:09:32.166Z,97.13
2018-05-17T03:11:59.675Z,84.53
2018-05-17T03:14:27.177Z,111.20
2018-05-17T03:16:54.737Z,88.23
2018-05-17T03:19:22.305Z,102.83
2018-05-17T03:21:49.863Z,89.50
2018-05-17T03:24:17.362Z,99.60
2018-05-17T03:26:44.900Z,82.13
2018-05-17T03:29:13.182Z,100.30
2018-05-17T03:31:41.501Z,106.13
2018-05-17T03:34:09.031Z,99.00
2018-05-17T03:36:36.575Z,94.63
2018-05-17T03:39:04.840Z,94.27
2018-05-17T03:41:32.376Z,99.80
2018-05-17T03:43:59.886Z,100.43
2018-05-17T03:46:27.440Z,105.37
2018-05-17T03:48:55.700Z,99.53
2018-05-17T03:51:23.999Z,91.50
2018-05-17T03:53:51.494Z,102.03
2018-05-17T03:56:19.033Z,98.57
2018-05-17T03:58:46.536Z,96.83
2018-05-17T04:01:25.899Z,95.30
2018-05-17T04:04:05.053Z,99.93
2018-05-17T04:06:45.506Z,88.33
2018-05-17T04:09:13.021Z,100.70
2018-05-17T04:11:40.594Z,105.03
2018-05-17T04:14:09.610Z,111.43
2018-05-17T04:16:37.936Z,101.20
2018-05-17T04:19:05.464Z,111.27
2018-05-17T04:21:32.971Z,98.17
2018-05-17T04:24:00.507Z,95.90
2018-05-17T04:26:28.006Z,84.00
2018-05-17T04:28:55.539Z,93.33
2018-05-17T04:31:23.035Z,102.67
2018-05-17T04:33:51.442Z,108.90
2018-05-17T04:36:18.997Z,107.23
2018-05-17T04:38:46.508Z,99.87
2018-05-17T04:41:14.068Z,94.90
2018-05-17T04:43:41.568Z,91.53
2018-05-17T04:46:09.084Z,92.63
2018-05-17T04:48:36.637Z,93.23
2018-05-17T04:51:04.145Z,111.10
2018-05-17T04:53:31.674Z,94.17
2018-05-17T04:55:59.166Z,90.13
2018-05-17T04:58:26.725Z,63.43
2018-05-17T05:00:54.238Z,84.63
2018-05-17T05:03:22.557Z,82.07
2018-05-17T05:05:50.062Z,104.60
2018-05-17T05:08:17.606Z,90.93
2018-05-17T05:10:45.109Z,83.80
2018-05-17T05:13:12.663Z,57.87
2018-05-17T05:15:40.939Z,95.63
2018-05-17T05:18:09.247Z,82.93
2018-05-17T05:20:36.749Z,89.07
2018-05-17T05:23:04.298Z,81.77
2018-05-17T05:25:31.838Z,64.37
2018-05-17T05:27:59.367Z,78.17
2018-05-17T05:30:26.857Z,77.63
2018-05-17T05:32:54.399Z,81.20
2018-05-17T05:35:21.907Z,86.40
2018-05-17T05:37:49.448Z,50.13
2018-05-17T05:40:16.943Z,76.30
2018-05-17T05:42:45.275Z,71.27
2018-05-17T05:45:12.774Z,62.77
2018-05-17T05:47:40.294Z,69.67
2018-05-17T05:50:07.829Z,64.77
2018-05-17T05:52:35.332Z,67.20
2018-05-17T05:55:02.866Z,64.67
2018-05-17T05:57:31.173Z,40.83
2018-05-17T05:59:58.704Z,63.80
2018-05-17T06:02:26.450Z,49.07
2018-05-17T06:04:54.095Z,61.67
2018-05-17T06:07:22.025Z,51.27
2018-05-17T06:09:49.525Z,52.07
2018-05-17T06:12:17.162Z,56.87
2018-05-17T06:14:45.458Z,49.93
2018-05-17T06:17:12.971Z,46.90
2018-05-17T06:19:40.512Z,53.90
2018-05-17T06:22:08.015Z,45.70
2018-05-17T06:24:36.316Z,50.67
2018-05-17T06:27:03.816Z,50.10
2018-05-17T06:29:31.356Z,42.90
2018-05-17T06:31:58.850Z,55.30
2018-05-17T06:34:26.396Z,40.70
2018-05-17T06:36:53.894Z,49.30
2018-05-17T06:39:21.526Z,44.23
2018-05-17T06:41:49.032Z,46.87
2018-05-17T06:44:16.588Z,44.47
2018-05-17T06:46:44.094Z,42.80
2018-05-17T06:49:11.625Z,46.37
2018-05-17T06:51:39.143Z,42.47
2018-05-17T06:54:07.479Z,49.53
2018-05-17T06:56:34.979Z,45.63
2018-05-17T06:59:02.480Z,32.57
2018-05-17T07:01:30.015Z,46.20
2018-05-17T07:03:57.521Z,43.10
2018-05-17T07:06:25.058Z,32.17
2018-05-17T07:08:52.554Z,42.03
2018-05-17T07:11:20.099Z,38.13
2018-05-17T07:13:47.619Z,37.10
2018-05-17T07:16:15.182Z,37.10
2018-05-17T07:18:42.980Z,40.27
2018-05-17T07:21:10.234Z,36.60
2018-05-17T07:23:37.733Z,35.53
2018-05-17T07:26:06.175Z,34.03
2018-05-17T07:28:33.691Z,44.53
2018-05-17T07:31:01.240Z,35.63
2018-05-17T07:33:28.751Z,38.23
2018-05-17T07:35:56.282Z,36.20
2018-05-17T07:38:23.797Z,32.10
2018-05-17T07:40:51.354Z,26.67
2018-05-17T07:43:19.623Z,28.87
2018-05-17T07:45:47.910Z,37.97
2018-05-17T07:48:16.231Z,31.30
2018-05-17T07:50:43.735Z,34.60
2018-05-17T07:53:11.274Z,29.33
2018-05-17T07:55:38.865Z,33.80
2018-05-17T07:58:06.359Z,33.27
2018-05-17T08:00:34.050Z,30.60
2018-05-17T08:03:01.577Z,31.70
2018-05-17T08:05:29.081Z,26.83
2018-05-17T08:07:57.383Z,36.77
2018-05-17T08:10:24.891Z,27.90
2018-05-17T08:12:52.423Z,27.60
2018-05-17T08:15:19.923Z,27.30
2018-05-17T08:17:47.498Z,27.07
2018-05-17T08:20:14.995Z,25.17
2018-05-17T08:22:42.526Z,28.80
2018-05-17T08:25:10.174Z,23.10
2018-05-17T08:27:37.714Z,40.10
2018-05-17T08:30:05.225Z,21.77
2018-05-17T08:32:32.766Z,27.80
2018-05-17T08:35:00.276Z,22.17
2018-05-17T08:37:27.827Z,17.50
2018-05-17T08:39:55.323Z,31.87
2018-05-17T08:42:22.888Z,37.60
2018-05-17T08:44:50.385Z,22.83
2018-05-17T08:47:17.923Z,20.97
2018-05-17T08:49:45.422Z,20.90
2018-05-17T08:52:12.961Z,24.00
2018-05-17T08:54:40.474Z,35.50
2018-05-17T08:57:08.778Z,26.93
2018-05-17T08:59:36.334Z,24.50
2018-05-17T09:02:03.838Z,22.00
2018-05-17T09:04:31.358Z,24.83
2018-05-17T09:06:58.912Z,29.80
2018-05-17T09:09:27.188Z,21.77
2018-05-17T09:11:55.504Z,28.17
2018-05-17T09:14:23.017Z,32.77
2018-05-17T09:16:50.560Z,21.30
2018-05-17T09:19:18.071Z,37.03
2018-05-17T09:21:45.627Z,27.40
2018-05-17T09:24:13.138Z,27.33
2018-05-17T09:26:40.726Z,21.67
2018-05-17T09:29:08.269Z,20.03
2018-05-17T09:31:35.756Z,23.37
2018-05-17T09:34:03.307Z,33.20
2018-05-17T09:36:30.868Z,24.97
2018-05-17T09:38:58.421Z,25.33
2018-05-17T09:41:25.933Z,28.17
2018-05-17T09:43:53.500Z,35.30
2018-05-17T09:46:21.081Z,26.47
2018-05-17T09:48:49.394Z,18.43
2018-05-17T09:51:16.896Z,22.37
2018-05-17T09:53:44.467Z,31.07
2018-05-17T09:56:12.738Z,36.33
2018-05-17T09:58:40.294Z,33.47
2018-05-17T10:01:07.798Z,29.43
2018-05-17T10:03:35.350Z,31.23
2018-05-17T10:06:03.019Z,23.43
2018-05-17T10:08:30.565Z,21.67
2018-05-17T10:10:58.067Z,32.43
2018-05-17T10:13:25.603Z,27.90
2018-05-17T10:15:53.107Z,32.03
2018-05-17T10:18:20.663Z,38.50
2018-05-17T10:20:48.167Z,22.70
2018-05-17T10:23:15.673Z,22.43
2018-05-17T10:25:43.212Z,24.93
2018-05-17T10:28:10.719Z,32.43
2018-05-17T10:30:39.029Z,22.87
2018-05-17T10:33:06.545Z,31.90
2018-05-17T10:35:34.095Z,24.77
2018-05-17T10:38:01.610Z,34.83
2018-05-17T10:40:29.164Z,31.07
2018-05-17T10:42:56.669Z,25.20
2018-05-17T10:45:24.220Z,27.13
2018-05-17T10:47:51.729Z,35.70
2018-05-17T10:50:19.273Z,30.33
2018-05-17T10:52:47.592Z,25.50
2018-05-17T10:55:15.150Z,27.17
2018-05-17T10:57:42.662Z,32.07
2018-05-17T11:00:11.081Z,43.23
2018-05-17T11:02:38.659Z,30.53
2018-05-17T11:05:06.902Z,24.60
2018-05-17T11:07:34.469Z,28.43
2018-05-17T11:10:01.979Z,30.63
2018-05-17T11:12:29.536Z,31.80
2018-05-17T11:14:57.042Z,23.67
2018-05-17T11:17:24.586Z,21.13
2018-05-17T11:19:52.099Z,25.93
2018-05-17T11:22:19.643Z,30.37
2018-05-17T11:24:47.158Z,33.87
2018-05-17T11:27:14.926Z,27.63
2018-05-17T11:29:42.432Z,25.93
2018-05-17T11:32:09.965Z,31.17
2018-05-17T11:34:37.478Z,31.70
2018-05-17T11:37:05.034Z,13.17
2018-05-17T11:39:32.557Z,34.43
2018-05-17T11:42:00.115Z,28.70
2018-05-17T11:44:27.623Z,28.70
2018-05-17T11:46:55.895Z,25.33
2018-05-17T11:49:23.451Z,24.77
2018-05-17T11:51:50.941Z,29.03
2018-05-17T11:54:18.499Z,32.07
2018-05-17T11:56:48.219Z,32.60
2018-05-17T11:59:15.782Z,22.10
2018-05-17T12:01:43.298Z,27.83
2018-05-17T12:04:10.848Z,26.20
2018-05-17T12:06:38.566Z,33.27
2018-05-17T12:09:06.114Z,26.30
2018-05-17T12:11:33.611Z,33.43
2018-05-17T12:14:01.158Z,34.57
2018-05-17T12:16:29.255Z,29.03
2018-05-17T12:18:56.802Z,24.67
2018-05-17T12:21:24.296Z,27.80
2018-05-17T12:23:51.850Z,36.00
2018-05-17T12:26:20.119Z,29.03
2018-05-17T12:28:47.641Z,25.10
2018-05-17T12:31:15.199Z,35.53
2018-05-17T12:33:42.711Z,31.27
2018-05-17T12:36:11.041Z,25.53
2018-05-17T12:38:38.540Z,31.67
2018-05-17T12:41:06.088Z,37.87
2018-05-17T12:43:33.592Z,32.07
2018-05-17T12:46:01.132Z,32.47
2018-05-17T12:48:28.643Z,35.67
2018-05-17T12:50:56.263Z,19.80
2018-05-17T12:53:23.698Z,29.43
2018-05-17T12:55:51.235Z,34.30
2018-05-17T12:58:18.754Z,41.47
2018-05-17T13:00:46.378Z,27.50
2018-05-17T13:03:14.664Z,42.80
2018-05-17T13:05:42.794Z,30.83
2018-05-17T13:08:10.343Z,30.70
2018-05-17T13:10:37.845Z,39.63
2018-05-17T13:13:06.223Z,30.87
2018-05-17T13:15:33.671Z,33.57
2018-05-17T13:18:01.256Z,35.37
2018-05-17T13:20:28.762Z,39.60
2018-05-17T13:22:56.298Z,34.27
2018-05-17T13:25:23.836Z,38.80
2018-05-17T13:27:51.394Z,29.10
2018-05-17T13:30:18.933Z,45.50
2018-05-17T13:32:47.202Z,29.37
2018-05-17T13:35:14.746Z,34.53
2018-05-17T13:37:42.255Z,30.60
2018-05-17T13:40:09.796Z,36.93
2018-05-17T13:42:38.088Z,24.67
2018-05-17T13:45:05.648Z,37.27
2018-05-17T13:47:33.235Z,39.97
2018-05-17T13:50:01.493Z,30.57
2018-05-17T13:52:29.031Z,30.07
2018-05-17T13:54:56.623Z,36.10
2018-05-17T13:57:24.129Z,38.10
2018-05-17T13:59:51.673Z,32.27
2018-05-17T14:02:19.229Z,37.10
2018-05-17T14:04:46.748Z,32.50
2018-05-17T14:07:14.363Z,46.67
2018-05-17T14:09:42.308Z,43.53
2018-05-17T14:12:09.812Z,29.67
2018-05-17T14:14:38.127Z,34.47
2018-05-17T14:17:05.648Z,38.67
2018-05-17T14:19:34.151Z,24.43
2018-05-17T14:22:01.651Z,34.07
2018-05-17T14:24:29.203Z,35.03
2018-05-17T14:26:56.708Z,41.80
2018-05-17T14:29:24.296Z,32.90
2018-05-17T14:31:51.814Z,30.50
2018-05-17T14:34:19.340Z,41.07
2018-05-17T14:36:46.916Z,38.37
2018-05-17T14:39:14.429Z,41.27
2018-05-17T14:41:42.058Z,33.90
2018-05-17T14:44:09.659Z,35.77
2018-05-17T14:46:37.412Z,25.60
2018-05-17T14:49:04.977Z,40.07
2018-05-17T14:51:32.540Z,35.27
2018-05-17T14:54:00.286Z,33.67
2018-05-17T14:56:27.930Z,37.20
2018-05-17T14:58:56.236Z,32.60
2018-05-17T15:01:23.830Z,36.40
2018-05-17T15:03:51.371Z,31.83
2018-05-17T15:06:18.940Z,31.90
2018-05-17T15:08:46.658Z,31.00
2018-05-17T15:11:15.031Z,41.10
2018-05-17T15:13:42.502Z,37.30
2018-05-17T15:16:10.068Z,36.60
2018-05-17T15:18:37.634Z,36.63
2018-05-17T15:21:05.139Z,44.30
2018-05-17T15:23:32.772Z,42.83
2018-05-17T15:26:00.274Z,34.27
2018-05-17T15:28:28.606Z,35.37
2018-05-17T15:30:56.122Z,37.00
2018-05-17T15:33:23.683Z,32.33
2018-05-17T15:35:51.214Z,43.87
2018-05-17T15:38:18.881Z,43.00
2018-05-17T15:40:46.513Z,40.03
2018-05-17T15:43:15.803Z,41.03
2018-05-17T15:45:44.193Z,35.20
2018-05-17T15:48:15.848Z,42.23
2018-05-17T15:50:43.389Z,39.53
2018-05-17T15:53:11.137Z,37.53
2018-05-17T15:55:38.887Z,39.33
2018-05-17T15:58:07.257Z,25.23
2018-05-17T16:00:36.432Z,31.73
2018-05-17T16:03:04.088Z,38.70
2018-05-17T16:05:33.348Z,31.80
2018-05-17T16:08:06.348Z,46.10
2018-05-17T16:10:36.533Z,42.80
2018-05-17T16:13:05.073Z,32.17
2018-05-17T16:15:40.996Z,39.70
2018-05-17T16:18:09.530Z,41.53
2018-05-17T16:20:37.193Z,41.87
2018-05-17T16:23:04.749Z,47.20
2018-05-17T16:25:33.481Z,52.40
2018-05-17T16:28:01.115Z,48.57
2018-05-17T16:30:33.279Z,48.57
2018-05-17T16:33:02.345Z,43.27
2018-05-17T16:35:33.386Z,42.67
2018-05-17T16:38:01.705Z,45.40
2018-05-17T16:40:31.931Z,38.87
2018-05-17T16:43:00.326Z,59.47
2018-05-17T16:45:28.004Z,44.10
2018-05-17T16:47:56.451Z,43.13
2018-05-17T16:50:24.023Z,51.90
2018-05-17T16:52:51.813Z,47.33
2018-05-17T16:55:20.128Z,47.23
2018-05-17T16:57:52.543Z,53.03
2018-05-17T17:00:21.999Z,44.03
2018-05-17T17:02:53.386Z,53.43
2018-05-17T17:05:21.657Z,50.47
2018-05-17T17:07:56.101Z,68.57
2018-05-17T17:10:27.475Z,55.10
2018-05-17T17:12:55.722Z,53.97
2018-05-17T17:15:25.085Z,49.40
2018-05-17T17:17:53.693Z,51.20
2018-05-17T17:20:23.057Z,50.93
2018-05-17T17:22:51.611Z,51.13
2018-05-17T17:25:19.296Z,57.43
2018-05-17T17:27:47.074Z,40.57
2018-05-17T17:30:14.721Z,61.40
2018-05-17T17:32:42.256Z,42.17
2018-05-17T17:35:09.807Z,53.63
2018-05-17T17:37:37.375Z,42.43
2018-05-17T17:40:04.932Z,46.47
2018-05-17T17:42:32.464Z,42.70
2018-05-17T17:45:00.013Z,50.17
2018-05-17T17:47:27.537Z,45.07
2018-05-17T17:49:55.140Z,46.40
2018-05-17T17:52:23.399Z,46.73
2018-05-17T17:54:51.785Z,46.83
2018-05-17T17:57:19.350Z,39.50
2018-05-17T17:59:46.925Z,47.87
2018-05-17T18:02:14.436Z,59.13
2018-05-17T18:04:41.938Z,26.00
2018-05-17T18:07:09.488Z,33.67
2018-05-17T18:09:36.998Z,57.20
2018-05-17T18:12:04.535Z,44.13
2018-05-17T18:14:32.041Z,46.00
2018-05-17T18:16:59.596Z,55.00
2018-05-17T18:19:27.865Z,49.60
2018-05-17T18:21:55.415Z,41.47
2018-05-17T18:24:23.709Z,47.33
2018-05-17T18:26:51.254Z,43.37
2018-05-17T18:29:18.781Z,44.17
2018-05-17T18:31:47.545Z,46.47
2018-05-17T18:34:15.050Z,42.20
2018-05-17T18:36:42.615Z,38.80
2018-05-17T18:39:10.129Z,54.90
2018-05-17T18:41:37.700Z,37.50
2018-05-17T18:44:07.094Z,49.00
2018-05-17T18:46:34.630Z,43.07
2018-05-17T18:49:02.226Z,43.80
2018-05-17T18:51:31.211Z,43.33
2018-05-17T18:53:58.709Z,41.93
2018-05-17T18:56:28.468Z,45.60
2018-05-17T18:58:55.986Z,47.57
2018-05-17T19:01:23.526Z,38.43
2018-05-17T19:03:51.077Z,42.47
2018-05-17T19:06:18.621Z,38.47
2018-05-17T19:08:46.223Z,40.43
2018-05-17T19:11:14.251Z,40.30
2018-05-17T19:13:41.807Z,53.27
2018-05-17T19:16:09.311Z,40.53
2018-05-17T19:18:37.622Z,38.40
2018-05-17T19:21:05.142Z,45.47
2018-05-17T19:23:32.698Z,69.03
2018-05-17T19:26:00.205Z,43.17
2018-05-17T19:28:27.764Z,59.33
2018-05-17T19:30:55.283Z,38.90
2018-05-17T19:33:22.801Z,55.47
2018-05-17T19:35:50.358Z,55.03
2018-05-17T19:38:17.864Z,45.40
2018-05-17T19:40:45.426Z,53.63
2018-05-17T19:43:13.707Z,34.43
2018-05-17T19:45:42.029Z,48.97
2018-05-17T19:48:09.561Z,48.03
2018-05-17T19:50:37.105Z,52.60
2018-05-17T19:53:05.721Z,50.10
2018-05-17T19:55:33.492Z,48.87
2018-05-17T19:58:01.051Z,52.17
2018-05-17T20:00:28.559Z,33.67
2018-05-17T20:02:56.104Z,55.60
2018-05-17T20:05:24.179Z,44.73
2018-05-17T20:07:51.718Z,36.63
2018-05-17T20:10:19.219Z,48.83
2018-05-17T20:12:47.550Z,45.93
2018-05-17T20:15:15.059Z,34.93
2018-05-17T20:17:42.944Z,36.80
2018-05-17T20:20:10.457Z,45.83
2018-05-17T20:22:37.966Z,52.20
2018-05-17T20:25:05.507Z,40.00
2018-05-17T20:27:33.053Z,31.30
2018-05-17T20:30:01.330Z,41.63
2018-05-17T20:32:30.563Z,64.93
2018-05-17T20:34:58.070Z,50.33
2018-05-17T20:37:25.622Z,41.67
2018-05-17T20:39:53.151Z,47.80
2018-05-17T20:42:20.707Z,36.50
2018-05-17T20:44:48.471Z,47.97
2018-05-17T20:47:16.619Z,44.20
2018-05-17T20:49:44.136Z,39.60
2018-05-17T20:52:12.666Z,39.43
2018-05-17T20:54:40.175Z,50.83
2018-05-17T20:57:07.743Z,40.53
2018-05-17T20:59:35.269Z,49.70
2018-05-17T21:02:02.814Z,52.23
2018-05-17T21:04:30.449Z,45.27
2018-05-17T21:06:58.722Z,39.83
2018-05-17T21:09:27.020Z,34.80
2018-05-17T21:11:55.107Z,47.17
2018-05-17T21:14:22.672Z,43.27
2018-05-17T21:16:50.190Z,69.50
2018-05-17T21:19:18.492Z,50.77
2018-05-17T21:21:45.998Z,54.30
2018-05-17T21:24:15.046Z,38.30
2018-05-17T21:26:42.564Z,38.77
2018-05-17T21:29:10.129Z,37.73
2018-05-17T21:31:38.398Z,48.73
2018-05-17T21:34:06.717Z,51.40
2018-05-17T21:36:34.222Z,50.63
2018-05-17T21:39:01.771Z,37.07
2018-05-17T21:41:29.602Z,36.03
2018-05-17T21:43:57.147Z,39.43
2018-05-17T21:46:24.665Z,43.23
2018-05-17T21:48:52.381Z,35.77
2018-05-17T21:51:19.882Z,36.37
2018-05-17T21:53:47.384Z,34.43
2018-05-17T21:56:14.922Z,36.00
2018-05-17T21:58:42.426Z,43.20
2018-05-17T22:01:10.011Z,48.10
2018-05-17T22:03:37.624Z,38.33
2018-05-17T22:06:05.178Z,42.33
2018-05-17T22:08:32.696Z,33.57
2018-05-17T22:11:00.245Z,51.87
2018-05-17T22:13:27.784Z,38.87
2018-05-17T22:15:55.318Z,51.00
2018-05-17T22:18:22.824Z,56.27
2018-05-17T22:20:50.369Z,42.90
2018-05-17T22:23:18.012Z,56.53
2018-05-17T22:25:45.550Z,48.40
2018-05-17T22:28:13.901Z,39.40
2018-05-17T22:30:42.229Z,39.70
2018-05-17T22:33:09.753Z,63.03
2018-05-17T22:35:38.014Z,46.57
2018-05-17T22:38:05.568Z,60.23
2018-05-17T22:40:33.063Z,51.10
2018-05-17T22:43:00.617Z,36.33
2018-05-17T22:45:28.879Z,34.90
2018-05-17T22:47:57.186Z,31.20
2018-05-17T22:50:24.694Z,29.83
2018-05-17T22:52:52.232Z,29.33
2018-05-17T22:55:19.726Z,42.07
2018-05-17T22:57:59.778Z,32.00
2018-05-17T23:00:27.295Z,26.63
2018-05-17T23:02:54.826Z,27.50
2018-05-17T23:05:22.596Z,31.43
2018-05-17T23:07:50.127Z,33.53
2018-05-17T23:10:18.406Z,30.70
2018-05-17T23:12:46.710Z,30.47
2018-05-17T23:15:14.207Z,24.93
2018-05-17T23:17:41.761Z,38.67
2018-05-17T23:20:09.258Z,28.00
2018-05-17T23:22:37.561Z,21.90
2018-05-17T23:25:05.067Z,23.53
2018-05-17T23:27:32.624Z,30.53
2018-05-17T23:30:00.142Z,27.97
2018-05-17T23:32:27.909Z,28.60
2018-05-17T23:34:55.449Z,27.83
2018-05-17T23:37:22.944Z,29.47
2018-05-17T23:39:50.494Z,26.23
2018-05-17T23:42:18.011Z,38.30
2018-05-17T23:44:46.407Z,20.50
2018-05-17T23:47:13.910Z,31.37
2018-05-17T23:49:41.451Z,35.37
2018-05-17T23:52:08.955Z,28.30
2018-05-17T23:54:36.677Z,26.33
2018-05-17T23:57:04.182Z,34.43
2018-05-17T23:59:32.490Z,26.97
